Owen Sound, Canada
Current Conditions -  °F | °C
As of 7:00 AM on Sunday 21 Dec 2014 (Local Time) from CYVV Reporting Station
Overcast Overcast  
Wind Chill: 20°   Ceiling: 2500
Heat Index: 27°   Visibility: 15mi
Dew Point: 23°   Wind: 6mph
Humidity: 86%   Direction: 140°SE
Pressure: 30.27"   Gusts: NA
Location:  44.56°N, 80.94°W
Report Text: CYVV 211200Z 14005KT 15SM OVC025 M03/M05 A3027 RMK SC8 SUNSHINE 1.2 SLP264
Loading
Personal Weather Stations






























Interactive Weather Map New forecast layout! Learn more

10-Day Weather Forecast

Advertisements
Track Severe Weather on mobile